createdAt,value
2023-03-31T00:02:02.197Z,14.50
2023-03-31T00:04:32.115Z,14.50
2023-03-31T00:06:59.382Z,14.50
2023-03-31T00:09:29.838Z,14.60
2023-03-31T00:11:56.988Z,14.60
2023-03-31T00:14:24.149Z,14.40
2023-03-31T00:16:51.368Z,14.40
2023-03-31T00:19:18.816Z,14.40
2023-03-31T00:21:46.102Z,14.50
2023-03-31T00:24:13.723Z,14.50
2023-03-31T00:26:40.813Z,14.40
2023-03-31T00:29:08.834Z,14.40
2023-03-31T00:31:36.232Z,14.40
2023-03-31T00:34:03.482Z,14.30
2023-03-31T00:36:31.021Z,14.30
2023-03-31T00:39:08.925Z,14.20
2023-03-31T00:41:36.485Z,14.40
2023-03-31T00:44:18.853Z,14.20
2023-03-31T00:46:56.409Z,14.00
2023-03-31T00:49:31.955Z,14.10
2023-03-31T00:52:19.615Z,13.90
2023-03-31T00:54:47.797Z,13.90
2023-03-31T00:57:15.090Z,13.40
2023-03-31T00:59:52.482Z,13.80
2023-03-31T01:02:25.537Z,13.30
2023-03-31T01:04:58.749Z,13.40
2023-03-31T01:07:38.346Z,13.00
2023-03-31T01:10:13.330Z,12.80
2023-03-31T01:12:41.707Z,13.10
2023-03-31T01:15:10.001Z,13.90
2023-03-31T01:17:37.398Z,13.80
2023-03-31T01:20:18.154Z,14.30
2023-03-31T01:23:00.566Z,14.60
2023-03-31T01:25:39.052Z,14.50
2023-03-31T01:28:19.616Z,14.20
2023-03-31T01:30:53.507Z,14.30
2023-03-31T01:33:20.656Z,14.20
2023-03-31T01:35:47.765Z,14.00
2023-03-31T01:38:33.388Z,14.30
2023-03-31T01:41:07.701Z,14.10
2023-03-31T01:43:34.802Z,13.80
2023-03-31T01:46:02.038Z,13.60
2023-03-31T01:48:30.085Z,13.60
2023-03-31T01:50:58.221Z,13.80
2023-03-31T01:53:31.420Z,14.10
2023-03-31T01:56:08.545Z,14.10
2023-03-31T01:58:39.532Z,14.30
2023-03-31T02:01:10.116Z,14.10
2023-03-31T02:03:37.899Z,13.90
2023-03-31T02:06:08.690Z,14.40
2023-03-31T02:08:40.478Z,14.30
2023-03-31T02:11:07.590Z,14.30
2023-03-31T02:13:34.931Z,14.10
2023-03-31T02:16:03.009Z,14.40
2023-03-31T02:18:33.022Z,14.50
2023-03-31T02:21:00.247Z,13.70
2023-03-31T02:23:29.555Z,13.20
2023-03-31T02:26:01.263Z,13.10
2023-03-31T02:28:28.603Z,13.50
2023-03-31T02:31:11.259Z,13.20
2023-03-31T02:33:38.392Z,13.40
2023-03-31T02:36:05.888Z,13.50
2023-03-31T02:38:34.110Z,13.60
2023-03-31T02:41:01.223Z,13.10
2023-03-31T02:43:28.326Z,13.50
2023-03-31T02:45:56.012Z,13.50
2023-03-31T02:48:27.439Z,13.30
2023-03-31T02:51:12.736Z,13.40
2023-03-31T02:53:58.676Z,13.30
2023-03-31T02:56:29.203Z,13.40
2023-03-31T02:59:16.576Z,13.50
2023-03-31T03:02:03.811Z,13.40
2023-03-31T03:04:49.717Z,13.50
2023-03-31T03:07:19.809Z,13.70
2023-03-31T03:09:50.227Z,13.40
2023-03-31T03:12:28.112Z,13.60
2023-03-31T03:15:07.677Z,13.70
2023-03-31T03:17:36.305Z,13.80
2023-03-31T03:20:08.226Z,13.70
2023-03-31T03:22:36.194Z,13.60
2023-03-31T03:25:03.985Z,13.90
2023-03-31T03:27:31.247Z,14.20
2023-03-31T03:29:58.638Z,14.00
2023-03-31T03:32:25.764Z,14.20
2023-03-31T03:34:52.866Z,14.10
2023-03-31T03:37:20.270Z,14.10
2023-03-31T03:39:47.364Z,14.40
2023-03-31T03:42:14.495Z,14.00
2023-03-31T03:44:41.622Z,14.40
2023-03-31T03:47:08.736Z,14.20
2023-03-31T03:49:35.902Z,14.10
2023-03-31T03:52:03.320Z,14.30
2023-03-31T03:54:30.751Z,14.50
2023-03-31T03:56:57.878Z,14.60
2023-03-31T03:59:24.979Z,14.10
2023-03-31T04:01:52.755Z,14.60
2023-03-31T04:04:19.965Z,14.30
2023-03-31T04:06:47.072Z,14.60
2023-03-31T04:09:14.173Z,14.80
2023-03-31T04:11:41.369Z,14.70
2023-03-31T04:14:08.659Z,15.20
2023-03-31T04:16:35.855Z,15.50
2023-03-31T04:19:04.872Z,15.60
2023-03-31T04:21:34.781Z,15.50
2023-03-31T04:24:04.501Z,15.60
2023-03-31T04:26:44.830Z,15.70
2023-03-31T04:29:22.387Z,15.40
2023-03-31T04:31:52.519Z,14.80
2023-03-31T04:34:22.133Z,14.10
2023-03-31T04:36:49.249Z,14.70
2023-03-31T04:39:17.062Z,14.30
2023-03-31T04:41:44.481Z,13.60
2023-03-31T04:44:11.605Z,13.40
2023-03-31T04:46:38.768Z,13.40
2023-03-31T04:49:06.052Z,13.90
2023-03-31T04:51:33.227Z,13.70
2023-03-31T04:54:00.374Z,13.40
2023-03-31T04:56:27.585Z,13.50
2023-03-31T04:58:54.757Z,13.80
2023-03-31T05:01:21.923Z,13.70
2023-03-31T05:03:49.093Z,13.20
2023-03-31T05:06:16.362Z,13.40
2023-03-31T05:08:43.673Z,13.50
2023-03-31T05:11:11.177Z,13.60
2023-03-31T05:13:38.285Z,13.30
2023-03-31T05:16:09.612Z,13.00
2023-03-31T05:18:36.943Z,13.20
2023-03-31T05:21:10.924Z,13.00
2023-03-31T05:23:38.007Z,12.90
2023-03-31T05:26:06.182Z,13.20
2023-03-31T05:28:33.912Z,13.10
2023-03-31T05:31:01.705Z,12.90
2023-03-31T05:33:28.865Z,12.50
2023-03-31T05:35:56.422Z,12.50
2023-03-31T05:38:23.574Z,12.50
2023-03-31T05:40:50.735Z,12.50
2023-03-31T05:43:17.827Z,12.60
2023-03-31T05:45:44.964Z,12.50
2023-03-31T05:48:12.197Z,12.60
2023-03-31T05:50:39.354Z,13.40
2023-03-31T05:53:06.478Z,13.10
2023-03-31T05:55:35.774Z,13.50
2023-03-31T05:58:02.915Z,13.60
2023-03-31T06:00:30.036Z,12.40
2023-03-31T06:02:57.826Z,12.00
2023-03-31T06:05:26.758Z,11.70
2023-03-31T06:07:53.896Z,11.30
2023-03-31T06:10:21.000Z,11.50
2023-03-31T06:12:48.153Z,11.60
2023-03-31T06:15:15.959Z,12.00
2023-03-31T06:17:43.142Z,12.00
2023-03-31T06:20:26.435Z,12.10
2023-03-31T06:22:54.710Z,11.20
2023-03-31T06:25:21.873Z,11.20
2023-03-31T06:27:49.000Z,11.50
2023-03-31T06:30:16.130Z,11.40
2023-03-31T06:32:43.334Z,11.50
2023-03-31T06:35:10.748Z,11.80
2023-03-31T06:37:37.835Z,11.90
2023-03-31T06:40:05.328Z,12.10
2023-03-31T06:42:32.439Z,11.80
2023-03-31T06:44:59.648Z,11.80
2023-03-31T06:47:26.766Z,11.90
2023-03-31T06:49:53.860Z,11.90
2023-03-31T06:52:21.254Z,12.10
2023-03-31T06:54:48.393Z,11.90
2023-03-31T06:57:15.573Z,11.60
2023-03-31T06:59:42.683Z,11.80
2023-03-31T07:02:10.244Z,11.80
2023-03-31T07:04:37.378Z,11.40
2023-03-31T07:07:04.491Z,11.60
2023-03-31T07:09:31.601Z,12.60
2023-03-31T07:11:58.746Z,13.50
2023-03-31T07:14:25.850Z,12.60
2023-03-31T07:16:53.062Z,13.90
2023-03-31T07:19:20.223Z,14.00
2023-03-31T07:21:47.401Z,14.40
2023-03-31T07:24:14.526Z,15.60
2023-03-31T07:26:41.752Z,15.60
2023-03-31T07:29:08.954Z,15.80
2023-03-31T07:31:36.122Z,14.90
2023-03-31T07:34:03.610Z,14.90
2023-03-31T07:36:30.889Z,15.00
2023-03-31T07:38:58.055Z,15.80
2023-03-31T07:41:26.143Z,17.10
2023-03-31T07:43:53.235Z,15.00
2023-03-31T07:46:21.684Z,15.80
2023-03-31T07:48:49.471Z,15.90
2023-03-31T07:51:17.419Z,14.30
2023-03-31T07:53:44.916Z,13.80
2023-03-31T07:56:12.201Z,13.70
2023-03-31T07:58:39.326Z,14.70
2023-03-31T08:01:06.663Z,14.10
2023-03-31T08:03:34.422Z,13.60
2023-03-31T08:06:01.684Z,14.00
2023-03-31T08:08:28.803Z,14.00
2023-03-31T08:10:55.927Z,14.70
2023-03-31T08:13:23.034Z,14.20
2023-03-31T08:15:50.260Z,13.30
2023-03-31T08:18:17.396Z,13.50
2023-03-31T08:20:44.498Z,13.50
2023-03-31T08:23:12.131Z,13.00
2023-03-31T08:25:39.258Z,13.00
2023-03-31T08:28:06.849Z,13.20
2023-03-31T08:30:34.348Z,13.40
2023-03-31T08:33:17.065Z,13.00
2023-03-31T08:35:50.145Z,13.20
2023-03-31T08:38:24.214Z,12.90
2023-03-31T08:41:08.772Z,13.10
2023-03-31T08:44:28.292Z,13.30
2023-03-31T08:47:28.059Z,13.20
2023-03-31T08:50:28.394Z,13.40
2023-03-31T08:53:27.841Z,13.60
2023-03-31T08:56:27.743Z,13.70
2023-03-31T08:59:28.412Z,14.50
2023-03-31T09:01:56.836Z,14.20
2023-03-31T09:04:51.750Z,13.90
2023-03-31T09:07:20.201Z,14.70
2023-03-31T09:09:50.459Z,14.00
2023-03-31T09:12:21.274Z,13.90
2023-03-31T09:14:53.956Z,14.10
2023-03-31T09:17:27.073Z,14.60
2023-03-31T09:19:55.471Z,14.80
2023-03-31T09:22:24.027Z,14.90
2023-03-31T09:24:53.064Z,14.30
2023-03-31T09:27:20.245Z,14.20
2023-03-31T09:29:53.409Z,14.20
2023-03-31T09:32:21.734Z,14.20
2023-03-31T09:34:51.254Z,14.30
2023-03-31T09:37:41.897Z,14.70
2023-03-31T09:46:13.745Z,14.80
2023-03-31T09:48:41.076Z,14.70
2023-03-31T09:51:08.328Z,14.90
2023-03-31T09:53:39.844Z,14.30
2023-03-31T09:56:11.487Z,14.30
2023-03-31T09:58:42.649Z,14.20
2023-03-31T10:01:11.155Z,14.40
2023-03-31T10:03:51.684Z,14.50
2023-03-31T10:06:19.140Z,14.60
2023-03-31T10:08:46.284Z,14.60
2023-03-31T10:11:13.426Z,15.00
2023-03-31T10:13:45.885Z,14.50
2023-03-31T10:16:14.266Z,14.50
2023-03-31T10:18:42.266Z,14.70
2023-03-31T10:21:23.287Z,14.50
2023-03-31T10:23:50.730Z,14.70
2023-03-31T10:26:18.898Z,14.60
2023-03-31T10:28:46.256Z,14.80
2023-03-31T10:31:13.415Z,14.50
2023-03-31T10:33:44.973Z,15.00
2023-03-31T10:36:15.925Z,15.50
2023-03-31T10:38:45.011Z,14.40
2023-03-31T10:41:12.222Z,13.50
2023-03-31T10:43:42.985Z,12.70
2023-03-31T10:46:10.163Z,13.10
2023-03-31T10:48:39.596Z,12.90
2023-03-31T10:51:16.754Z,12.00
2023-03-31T10:53:45.105Z,11.80
2023-03-31T10:56:15.400Z,11.60
2023-03-31T10:59:01.995Z,12.10
2023-03-31T11:01:57.716Z,12.40
2023-03-31T11:04:44.626Z,12.10
2023-03-31T11:07:14.139Z,11.30
2023-03-31T11:09:58.144Z,11.40
2023-03-31T11:12:27.206Z,12.00
2023-03-31T11:14:57.227Z,10.70
2023-03-31T11:17:27.550Z,11.60
2023-03-31T11:19:57.560Z,11.10
2023-03-31T11:22:27.696Z,11.80
2023-03-31T11:25:07.204Z,12.00
2023-03-31T11:27:42.110Z,11.50
2023-03-31T11:30:09.249Z,11.70
2023-03-31T11:32:55.255Z,11.60
2023-03-31T11:35:28.979Z,11.90
2023-03-31T11:38:01.748Z,12.90
2023-03-31T11:40:35.023Z,12.70
2023-03-31T11:43:02.238Z,12.40
2023-03-31T11:45:30.605Z,12.60
2023-03-31T11:47:59.531Z,11.90
2023-03-31T11:50:27.740Z,11.50
2023-03-31T11:53:06.320Z,11.80
2023-03-31T11:55:33.578Z,11.90
2023-03-31T11:58:02.584Z,11.80
2023-03-31T12:00:34.980Z,12.40
2023-03-31T12:03:02.100Z,12.40
2023-03-31T12:05:30.583Z,12.10
2023-03-31T12:08:18.046Z,12.20
2023-03-31T12:10:46.747Z,11.90
2023-03-31T12:13:32.664Z,11.70
2023-03-31T12:16:17.555Z,12.10
2023-03-31T12:18:56.947Z,12.30
2023-03-31T12:24:32.968Z,13.50
2023-03-31T12:28:12.198Z,13.50
2023-03-31T12:30:57.908Z,13.20
2023-03-31T12:33:43.386Z,13.30
2023-03-31T12:36:49.676Z,13.80
2023-03-31T12:39:29.398Z,13.20
2023-03-31T12:42:45.563Z,13.00
2023-03-31T12:45:57.541Z,13.20
2023-03-31T13:02:00.661Z,12.40
2023-03-31T13:04:54.639Z,12.30
2023-03-31T13:07:29.088Z,12.70
2023-03-31T13:09:57.268Z,12.90
2023-03-31T13:12:27.792Z,13.40
2023-03-31T13:14:59.050Z,13.30
2023-03-31T13:17:32.292Z,13.60
2023-03-31T13:20:16.164Z,13.10
2023-03-31T13:22:44.167Z,13.30
2023-03-31T13:25:29.675Z,13.10
2023-03-31T13:27:57.455Z,13.50
2023-03-31T13:30:36.871Z,13.30
2023-03-31T13:33:04.459Z,12.90
2023-03-31T13:35:31.619Z,11.30
2023-03-31T13:37:58.734Z,11.30
2023-03-31T13:40:46.772Z,12.40
2023-03-31T13:43:29.184Z,12.60
2023-03-31T13:46:15.466Z,11.20
2023-03-31T13:48:56.198Z,11.30
2023-03-31T13:51:25.686Z,11.00
2023-03-31T13:54:04.850Z,11.00
2023-03-31T13:56:31.936Z,11.00
2023-03-31T13:58:59.054Z,11.00
2023-03-31T14:01:46.790Z,11.90
2023-03-31T14:04:26.115Z,11.50
2023-03-31T14:07:01.551Z,11.90
2023-03-31T14:09:32.368Z,12.00
2023-03-31T14:12:00.019Z,12.10
2023-03-31T14:14:27.914Z,12.00
2023-03-31T14:16:58.392Z,12.40
2023-03-31T14:19:29.487Z,12.60
2023-03-31T14:22:17.176Z,11.80
2023-03-31T14:24:50.564Z,12.70
2023-03-31T14:27:21.852Z,13.10
2023-03-31T14:29:52.724Z,13.30
2023-03-31T14:32:23.964Z,12.80
2023-03-31T14:35:04.479Z,13.00
2023-03-31T14:37:31.934Z,13.00
2023-03-31T14:39:59.135Z,12.40
2023-03-31T14:42:37.284Z,11.80
2023-03-31T14:45:06.164Z,11.30
2023-03-31T14:47:33.444Z,11.90
2023-03-31T14:50:01.191Z,11.50
2023-03-31T14:52:30.151Z,11.40
2023-03-31T14:54:57.344Z,11.20
2023-03-31T14:57:27.927Z,10.80
2023-03-31T14:59:55.166Z,11.20
2023-03-31T15:02:33.070Z,11.10
2023-03-31T15:05:01.769Z,11.60
2023-03-31T15:07:28.976Z,11.00
2023-03-31T15:09:56.090Z,10.60
2023-03-31T15:12:23.547Z,11.30
2023-03-31T15:15:02.121Z,11.00
2023-03-31T15:17:29.863Z,10.80
2023-03-31T15:19:58.196Z,11.20
2023-03-31T15:22:26.265Z,11.20
2023-03-31T15:24:54.051Z,11.20
2023-03-31T15:27:37.201Z,11.00
2023-03-31T15:30:08.466Z,11.10
2023-03-31T15:32:36.263Z,11.00
2023-03-31T15:37:52.801Z,11.10
2023-03-31T15:40:24.240Z,11.00
2023-03-31T15:43:24.277Z,11.30
2023-03-31T15:45:52.331Z,11.00
2023-03-31T15:48:38.534Z,11.10
2023-03-31T15:51:14.860Z,11.40
2023-03-31T15:53:46.102Z,11.10
2023-03-31T15:56:27.082Z,11.20
2023-03-31T15:58:54.378Z,11.40
2023-03-31T16:01:21.553Z,11.50
2023-03-31T16:03:48.835Z,11.30
2023-03-31T16:06:19.980Z,11.50
2023-03-31T16:08:56.601Z,11.50
2023-03-31T16:11:28.278Z,11.70
2023-03-31T16:13:56.365Z,11.50
2023-03-31T16:16:24.063Z,11.70
2023-03-31T16:18:52.151Z,11.60
2023-03-31T16:21:23.198Z,11.50
2023-03-31T16:23:51.351Z,11.40
2023-03-31T16:26:25.054Z,11.30
2023-03-31T16:28:52.822Z,11.20
2023-03-31T16:31:27.412Z,11.20
2023-03-31T16:33:55.315Z,11.30
2023-03-31T16:36:22.470Z,11.00
2023-03-31T16:38:51.700Z,11.10
2023-03-31T16:41:19.359Z,11.10
2023-03-31T16:43:46.582Z,11.00
2023-03-31T16:46:13.752Z,10.80
2023-03-31T16:48:40.933Z,10.80
2023-03-31T16:51:08.016Z,10.70
2023-03-31T16:53:36.049Z,10.70
2023-03-31T16:56:04.058Z,10.80
2023-03-31T16:58:31.422Z,10.80
2023-03-31T17:00:58.600Z,10.90
2023-03-31T17:03:26.081Z,10.90
2023-03-31T17:05:56.297Z,11.10
2023-03-31T17:08:25.670Z,11.10
2023-03-31T17:10:58.766Z,11.30
2023-03-31T17:13:25.950Z,11.00
2023-03-31T17:16:01.327Z,10.70
2023-03-31T17:18:40.354Z,10.60
2023-03-31T17:21:08.541Z,10.60
2023-03-31T17:23:36.337Z,10.50
2023-03-31T17:26:04.107Z,10.50
2023-03-31T17:28:31.256Z,10.50
2023-03-31T17:30:58.579Z,10.80
2023-03-31T17:33:26.233Z,11.10
2023-03-31T17:35:58.296Z,10.80
2023-03-31T17:38:25.914Z,11.00
2023-03-31T17:40:54.475Z,11.00
2023-03-31T17:43:22.001Z,10.90
2023-03-31T17:45:49.503Z,11.20
2023-03-31T17:48:16.645Z,11.00
2023-03-31T17:50:46.072Z,11.40
2023-03-31T17:53:13.346Z,11.00
2023-03-31T17:55:40.475Z,11.00
2023-03-31T17:58:08.617Z,10.80
2023-03-31T18:00:35.942Z,11.10
2023-03-31T18:03:03.209Z,11.00
2023-03-31T18:05:32.333Z,11.10
2023-03-31T18:07:59.652Z,11.10
2023-03-31T18:10:26.781Z,11.00
2023-03-31T18:12:55.013Z,11.00
2023-03-31T18:15:22.697Z,11.20
2023-03-31T18:17:50.620Z,11.10
2023-03-31T18:20:18.115Z,11.20
2023-03-31T18:22:45.236Z,11.20
2023-03-31T18:25:12.882Z,11.20
2023-03-31T18:27:40.109Z,11.30
2023-03-31T18:30:08.079Z,11.20
2023-03-31T18:32:35.727Z,11.30
2023-03-31T18:35:02.950Z,11.20
2023-03-31T18:37:30.126Z,11.20
2023-03-31T18:39:57.288Z,11.10
2023-03-31T18:42:25.142Z,11.10
2023-03-31T18:44:52.788Z,11.40
2023-03-31T18:47:20.572Z,11.10
2023-03-31T18:49:48.506Z,11.10
2023-03-31T18:52:16.292Z,11.20
2023-03-31T18:54:43.462Z,11.10
2023-03-31T18:57:11.618Z,10.80
2023-03-31T18:59:38.803Z,10.90
2023-03-31T19:02:06.482Z,10.80
2023-03-31T19:04:33.698Z,10.70
2023-03-31T19:07:01.231Z,11.10
2023-03-31T19:09:28.792Z,10.70
2023-03-31T19:11:57.418Z,10.90
2023-03-31T19:14:24.582Z,10.90
2023-03-31T19:16:51.738Z,10.60
2023-03-31T19:19:19.091Z,10.60
2023-03-31T19:21:46.203Z,10.50
2023-03-31T19:24:13.398Z,10.80
2023-03-31T19:26:40.665Z,10.50
2023-03-31T19:29:08.012Z,10.50
2023-03-31T19:31:38.382Z,10.60
2023-03-31T19:34:05.738Z,10.70
2023-03-31T19:36:32.954Z,10.50
2023-03-31T19:39:01.072Z,10.40
2023-03-31T19:41:28.362Z,10.70
2023-03-31T19:43:55.501Z,10.60
2023-03-31T19:46:22.658Z,10.40
2023-03-31T19:48:49.799Z,10.30
2023-03-31T19:51:17.123Z,10.20
2023-03-31T19:53:44.237Z,10.40
2023-03-31T19:56:12.597Z,10.60
2023-03-31T19:58:39.932Z,11.00
2023-03-31T20:01:08.354Z,9.90
2023-03-31T20:03:35.829Z,9.60
2023-03-31T20:06:07.226Z,9.40
2023-03-31T20:08:35.128Z,9.60
2023-03-31T20:11:03.774Z,9.30
2023-03-31T20:13:32.516Z,9.30
2023-03-31T20:16:04.768Z,9.20
2023-03-31T20:18:31.960Z,9.40
2023-03-31T20:21:03.186Z,9.10
2023-03-31T20:23:30.418Z,9.30
2023-03-31T20:25:57.535Z,9.10
2023-03-31T20:28:24.629Z,9.20
2023-03-31T20:30:55.672Z,9.00
2023-03-31T20:33:23.447Z,9.10
2023-03-31T20:36:04.108Z,9.20
2023-03-31T20:38:31.246Z,9.20
2023-03-31T20:40:58.584Z,9.20
2023-03-31T20:43:25.836Z,9.10
2023-03-31T20:46:02.614Z,9.20
2023-03-31T20:48:42.912Z,9.20
2023-03-31T20:51:10.983Z,9.20
2023-03-31T20:53:47.540Z,9.20
2023-03-31T20:56:15.768Z,9.30
2023-03-31T20:58:44.336Z,9.30
2023-03-31T21:01:11.672Z,9.20
2023-03-31T21:03:38.968Z,9.20
2023-03-31T21:06:06.936Z,9.40
2023-03-31T21:08:39.376Z,9.40
2023-03-31T21:11:06.607Z,9.50
2023-03-31T21:13:34.068Z,9.50
2023-03-31T21:16:01.439Z,9.60
2023-03-31T21:18:29.302Z,9.50
2023-03-31T21:20:57.498Z,9.50
2023-03-31T21:23:24.941Z,9.50
2023-03-31T21:25:52.855Z,9.70
2023-03-31T21:28:21.371Z,9.50
2023-03-31T21:30:49.221Z,9.50
2023-03-31T21:33:16.552Z,9.70
2023-03-31T21:35:43.698Z,9.50
2023-03-31T21:38:10.805Z,9.60
2023-03-31T21:40:38.009Z,9.50
2023-03-31T21:43:05.122Z,9.70
2023-03-31T21:45:32.545Z,9.80
2023-03-31T21:47:59.853Z,9.80
2023-03-31T21:50:27.074Z,9.60
2023-03-31T21:52:54.184Z,9.60
2023-03-31T21:55:21.328Z,9.50
2023-03-31T21:57:48.406Z,9.50
2023-03-31T22:00:16.533Z,9.50
2023-03-31T22:02:43.761Z,9.40
2023-03-31T22:05:11.092Z,9.40
2023-03-31T22:07:38.245Z,9.20
2023-03-31T22:10:05.545Z,9.50
2023-03-31T22:12:32.672Z,9.20
2023-03-31T22:14:59.779Z,9.40
2023-03-31T22:17:27.944Z,9.10
2023-03-31T22:19:55.536Z,9.20
2023-03-31T22:22:22.655Z,9.20
2023-03-31T22:24:49.755Z,9.10
2023-03-31T22:27:16.870Z,9.10
2023-03-31T22:29:43.936Z,9.20
2023-03-31T22:32:11.134Z,9.30
2023-03-31T22:34:38.288Z,9.10
2023-03-31T22:37:05.603Z,9.20
2023-03-31T22:39:32.682Z,9.20
2023-03-31T22:41:59.784Z,9.10
2023-03-31T22:44:26.889Z,9.30
2023-03-31T22:46:54.053Z,9.20
2023-03-31T22:49:21.624Z,9.20
2023-03-31T22:51:49.038Z,9.10
2023-03-31T22:54:16.495Z,9.20
2023-03-31T22:56:44.158Z,9.20
2023-03-31T22:59:11.484Z,9.20
2023-03-31T23:01:38.658Z,9.20
2023-03-31T23:04:06.573Z,9.00
2023-03-31T23:06:36.055Z,9.00
2023-03-31T23:09:03.432Z,9.00
2023-03-31T23:11:30.866Z,9.00
2023-03-31T23:13:57.974Z,9.10
2023-03-31T23:16:26.148Z,9.10
2023-03-31T23:18:54.023Z,9.00
2023-03-31T23:21:25.482Z,9.20
2023-03-31T23:23:53.906Z,9.00
2023-03-31T23:26:21.752Z,9.00
2023-03-31T23:28:49.441Z,9.00
2023-03-31T23:31:16.911Z,9.10
2023-03-31T23:33:44.001Z,9.00
2023-03-31T23:36:16.806Z,9.00
2023-03-31T23:38:44.459Z,9.10
2023-03-31T23:41:11.708Z,8.90
2023-03-31T23:43:39.270Z,8.80
2023-03-31T23:46:07.156Z,8.90
2023-03-31T23:48:35.163Z,8.90
2023-03-31T23:51:02.425Z,8.90
2023-03-31T23:53:30.529Z,8.90
2023-03-31T23:55:58.646Z,8.70
2023-03-31T23:58:26.177Z,9.00
